createdAt,value
2023-08-16T00:02:10.378Z,20.77
2023-08-16T00:04:37.938Z,20.87
2023-08-16T00:07:05.887Z,20.93
2023-08-16T00:09:34.838Z,20.80
2023-08-16T00:12:02.695Z,20.68
2023-08-16T00:14:30.061Z,20.83
2023-08-16T00:16:57.956Z,20.97
2023-08-16T00:19:25.394Z,21.01
2023-08-16T00:21:53.189Z,21.03
2023-08-16T00:24:20.679Z,21.03
2023-08-16T00:26:49.883Z,20.77
2023-08-16T00:29:17.198Z,20.44
2023-08-16T00:31:44.934Z,20.40
2023-08-16T00:34:12.515Z,20.41
2023-08-16T00:36:40.236Z,20.36
2023-08-16T00:39:07.896Z,20.29
2023-08-16T00:41:35.677Z,20.21
2023-08-16T00:44:05.205Z,20.20
2023-08-16T00:46:33.334Z,20.44
2023-08-16T00:49:00.938Z,20.35
2023-08-16T00:51:28.778Z,20.28
2023-08-16T00:53:56.209Z,20.43
2023-08-16T00:56:23.911Z,20.41
2023-08-16T00:58:51.390Z,20.32
2023-08-16T01:01:22.947Z,20.36
2023-08-16T01:03:50.762Z,20.37
2023-08-16T01:06:18.685Z,20.11
2023-08-16T01:08:46.106Z,20.08
2023-08-16T01:11:18.981Z,20.16
2023-08-16T01:13:55.769Z,20.18
2023-08-16T01:16:30.331Z,20.28
2023-08-16T01:18:58.407Z,20.33
2023-08-16T01:21:27.557Z,20.34
2023-08-16T01:24:05.945Z,20.51
2023-08-16T01:26:45.492Z,20.31
2023-08-16T01:29:13.696Z,20.31
2023-08-16T01:31:41.664Z,20.41
2023-08-16T01:34:09.107Z,20.50
2023-08-16T01:36:36.922Z,20.49
2023-08-16T01:39:04.571Z,20.30
2023-08-16T01:41:36.980Z,20.05
2023-08-16T01:44:12.113Z,19.87
2023-08-16T01:46:41.582Z,19.76
2023-08-16T01:49:10.547Z,19.83
2023-08-16T01:51:38.382Z,19.74
2023-08-16T01:54:06.476Z,19.77
2023-08-16T01:56:34.251Z,19.90
2023-08-16T01:59:01.700Z,19.75
2023-08-16T02:01:35.179Z,19.67
2023-08-16T02:04:02.659Z,19.32
2023-08-16T02:06:30.473Z,19.44
2023-08-16T02:08:57.892Z,19.43
2023-08-16T02:11:25.788Z,19.40
2023-08-16T02:13:53.143Z,19.38
2023-08-16T02:16:20.952Z,19.33
2023-08-16T02:18:49.968Z,18.86
2023-08-16T02:21:17.945Z,18.37
2023-08-16T02:23:45.357Z,17.92
2023-08-16T02:26:13.138Z,17.74
2023-08-16T02:28:40.496Z,17.50
2023-08-16T02:31:08.724Z,17.38
2023-08-16T02:33:36.187Z,17.47
2023-08-16T02:36:09.145Z,17.88
2023-08-16T02:38:36.451Z,17.95
2023-08-16T02:41:04.200Z,18.10
2023-08-16T02:43:31.572Z,18.25
2023-08-16T02:46:03.998Z,18.34
2023-08-16T02:48:31.833Z,18.44
2023-08-16T02:50:59.573Z,18.48
2023-08-16T02:53:33.184Z,18.64
2023-08-16T02:56:00.961Z,18.61
2023-08-16T02:58:28.427Z,18.69
2023-08-16T03:00:56.185Z,18.76
2023-08-16T03:03:23.970Z,18.86
2023-08-16T03:05:51.883Z,18.78
2023-08-16T03:08:19.273Z,18.87
2023-08-16T03:10:48.594Z,18.87
2023-08-16T03:13:15.951Z,18.90
2023-08-16T03:15:43.973Z,19.04
2023-08-16T03:18:11.405Z,19.12
2023-08-16T03:20:39.185Z,19.17
2023-08-16T03:23:06.642Z,18.74
2023-08-16T03:25:34.472Z,18.23
2023-08-16T03:28:07.207Z,18.22
2023-08-16T03:30:35.087Z,18.32
2023-08-16T03:33:02.640Z,18.41
2023-08-16T03:35:30.427Z,18.45
2023-08-16T03:37:57.672Z,18.50
2023-08-16T03:40:25.567Z,18.55
2023-08-16T03:42:53.073Z,18.59
2023-08-16T03:45:22.200Z,18.58
2023-08-16T03:47:49.624Z,18.67
2023-08-16T03:50:17.866Z,18.52
2023-08-16T03:52:46.266Z,18.67
2023-08-16T03:55:14.031Z,18.90
2023-08-16T03:57:41.466Z,18.92
2023-08-16T04:00:10.048Z,18.78
2023-08-16T04:02:39.059Z,18.77
2023-08-16T04:05:11.979Z,18.90
2023-08-16T04:07:39.994Z,18.80
2023-08-16T04:10:08.503Z,18.90
2023-08-16T04:12:36.094Z,18.86
2023-08-16T04:15:04.203Z,18.93
2023-08-16T04:17:31.726Z,18.94
2023-08-16T04:20:00.949Z,18.96
2023-08-16T04:22:28.356Z,18.90
2023-08-16T04:24:56.222Z,18.91
2023-08-16T04:27:23.829Z,19.05
2023-08-16T04:29:51.840Z,19.14
2023-08-16T04:32:19.259Z,19.09
2023-08-16T04:34:47.041Z,19.11
2023-08-16T04:37:15.882Z,19.25
2023-08-16T04:39:43.672Z,19.45
2023-08-16T04:42:11.152Z,19.55
2023-08-16T04:44:38.912Z,19.72
2023-08-16T04:47:08.819Z,19.88
2023-08-16T04:49:36.861Z,20.13
2023-08-16T04:52:04.973Z,20.27
2023-08-16T04:54:34.056Z,20.41
2023-08-16T04:57:01.501Z,20.68
2023-08-16T04:59:29.238Z,20.95
2023-08-16T05:01:56.655Z,21.25
2023-08-16T05:04:29.016Z,21.49
2023-08-16T05:06:56.459Z,21.82
2023-08-16T05:09:24.334Z,22.11
2023-08-16T05:11:57.150Z,22.36
2023-08-16T05:14:25.002Z,22.46
2023-08-16T05:16:52.465Z,22.66
2023-08-16T05:19:20.366Z,22.68
2023-08-16T05:21:47.771Z,22.80
2023-08-16T05:24:20.034Z,22.80
2023-08-16T05:26:47.469Z,22.72
2023-08-16T05:29:20.098Z,22.82
2023-08-16T05:31:47.489Z,23.11
2023-08-16T05:34:15.302Z,23.18
2023-08-16T05:36:47.237Z,23.35
2023-08-16T05:39:19.102Z,23.63
2023-08-16T05:41:46.379Z,23.96
2023-08-16T05:44:14.196Z,24.13
2023-08-16T05:46:43.116Z,24.20
2023-08-16T05:49:11.650Z,24.36
2023-08-16T05:51:39.053Z,24.52
2023-08-16T05:54:06.984Z,24.54
2023-08-16T05:56:34.318Z,24.60
2023-08-16T05:59:02.198Z,24.83
2023-08-16T06:01:29.712Z,24.79
2023-08-16T06:04:03.263Z,24.99
2023-08-16T06:06:30.764Z,25.15
2023-08-16T06:08:58.591Z,25.35
2023-08-16T06:11:26.062Z,25.69
2023-08-16T06:13:54.012Z,25.95
2023-08-16T06:16:21.510Z,26.19
2023-08-16T06:18:49.254Z,26.02
2023-08-16T06:21:23.551Z,26.10
2023-08-16T06:23:54.642Z,26.17
2023-08-16T06:26:28.080Z,26.39
2023-08-16T06:28:55.963Z,26.49
2023-08-16T06:31:23.394Z,26.70
2023-08-16T06:33:51.205Z,26.89
2023-08-16T06:36:24.114Z,27.00
2023-08-16T06:38:51.809Z,27.23
2023-08-16T06:41:19.100Z,27.39
2023-08-16T06:43:46.939Z,27.51
2023-08-16T06:46:14.563Z,27.60
2023-08-16T06:48:42.465Z,27.73
2023-08-16T06:51:09.938Z,27.85
2023-08-16T06:53:39.142Z,28.08
2023-08-16T06:56:06.549Z,28.13
2023-08-16T06:58:34.324Z,28.24
2023-08-16T07:01:02.020Z,28.50
2023-08-16T07:03:30.015Z,28.65
2023-08-16T07:06:00.328Z,28.72
2023-08-16T07:08:29.671Z,28.80
2023-08-16T07:10:58.607Z,29.06
2023-08-16T07:13:26.444Z,29.17
2023-08-16T07:15:53.872Z,29.35
2023-08-16T07:18:21.818Z,29.64
2023-08-16T07:20:49.263Z,29.55
2023-08-16T07:23:17.211Z,29.73
2023-08-16T07:25:44.681Z,29.91
2023-08-16T07:28:13.966Z,30.07
2023-08-16T07:30:41.391Z,30.18
2023-08-16T07:33:09.276Z,30.38
2023-08-16T07:35:36.816Z,30.70
2023-08-16T07:38:05.027Z,30.90
2023-08-16T07:40:32.962Z,30.88
2023-08-16T07:43:00.967Z,30.57
2023-08-16T07:45:29.993Z,30.77
2023-08-16T07:47:57.820Z,31.21
2023-08-16T07:50:25.380Z,31.33
2023-08-16T07:52:53.230Z,31.41
2023-08-16T07:55:24.153Z,31.39
2023-08-16T07:57:52.038Z,31.22
2023-08-16T08:00:19.592Z,31.32
2023-08-16T08:03:00.182Z,31.75
2023-08-16T08:05:28.128Z,31.66
2023-08-16T08:07:56.131Z,31.78
2023-08-16T08:10:23.786Z,32.04
2023-08-16T08:12:51.672Z,32.16
2023-08-16T08:15:21.874Z,32.27
2023-08-16T08:17:49.760Z,32.38
2023-08-16T08:20:22.132Z,32.42
2023-08-16T08:22:50.041Z,32.60
2023-08-16T08:25:17.774Z,32.63
2023-08-16T08:27:45.653Z,32.97
2023-08-16T08:30:13.874Z,33.28
2023-08-16T08:32:41.635Z,33.27
2023-08-16T08:35:09.551Z,33.68
2023-08-16T08:37:43.132Z,33.63
2023-08-16T08:40:10.891Z,33.70
2023-08-16T08:42:40.813Z,34.05
2023-08-16T08:45:09.843Z,34.15
2023-08-16T08:47:39.059Z,34.37
2023-08-16T08:50:07.837Z,34.73
2023-08-16T08:52:35.788Z,34.72
2023-08-16T08:55:09.879Z,34.37
2023-08-16T08:57:38.357Z,34.37
2023-08-16T09:00:07.405Z,34.25
2023-08-16T09:02:37.518Z,34.43
2023-08-16T09:05:08.082Z,34.45
2023-08-16T09:07:41.182Z,34.71
2023-08-16T09:10:11.212Z,34.77
2023-08-16T09:12:39.410Z,34.33
2023-08-16T09:15:09.123Z,33.97
2023-08-16T09:17:37.591Z,34.18
2023-08-16T09:20:05.970Z,34.45
2023-08-16T09:22:33.753Z,34.68
2023-08-16T09:25:03.571Z,34.83
2023-08-16T09:27:32.930Z,35.02
2023-08-16T09:30:00.456Z,35.16
2023-08-16T09:32:30.480Z,35.37
2023-08-16T09:35:00.181Z,35.25
2023-08-16T09:37:31.962Z,35.34
2023-08-16T09:39:59.881Z,35.33
2023-08-16T09:42:35.454Z,35.40
2023-08-16T09:45:03.543Z,35.24
2023-08-16T09:47:59.424Z,35.33
2023-08-16T09:50:28.832Z,35.51
2023-08-16T09:52:57.844Z,35.24
2023-08-16T09:55:30.827Z,35.59
2023-08-16T09:58:04.448Z,35.93
2023-08-16T10:00:31.896Z,36.42
2023-08-16T10:02:59.787Z,36.58
2023-08-16T10:05:28.619Z,36.68
2023-08-16T10:08:14.538Z,36.41
2023-08-16T10:10:42.796Z,36.12
2023-08-16T10:13:13.272Z,35.78
2023-08-16T10:15:43.723Z,35.35
2023-08-16T10:18:13.957Z,34.67
2023-08-16T10:20:45.729Z,34.79
2023-08-16T10:23:19.735Z,35.00
2023-08-16T10:25:50.084Z,35.14
2023-08-16T10:28:23.068Z,35.29
2023-08-16T10:33:33.819Z,35.74
2023-08-16T10:36:07.502Z,36.00
2023-08-16T10:38:38.054Z,36.36
2023-08-16T10:41:14.037Z,35.73
2023-08-16T10:43:50.704Z,35.47
2023-08-16T10:46:28.654Z,35.36
2023-08-16T10:48:59.685Z,35.33
2023-08-16T10:51:29.960Z,35.46
2023-08-16T10:54:02.218Z,35.39
2023-08-16T10:56:37.493Z,35.51
2023-08-16T10:59:12.202Z,35.67
2023-08-16T11:01:46.963Z,36.13
2023-08-16T11:04:15.348Z,36.26
2023-08-16T11:06:55.801Z,36.45
2023-08-16T11:09:29.894Z,36.71
2023-08-16T11:12:02.040Z,37.11
2023-08-16T11:14:31.432Z,37.02
2023-08-16T11:16:58.885Z,37.20
2023-08-16T11:19:26.974Z,37.20
2023-08-16T11:22:01.816Z,37.18
2023-08-16T11:24:30.139Z,37.46
2023-08-16T11:26:57.646Z,37.59
2023-08-16T11:29:25.473Z,37.64
2023-08-16T11:32:03.528Z,37.52
2023-08-16T11:34:32.806Z,37.18
2023-08-16T11:37:00.268Z,37.28
2023-08-16T11:39:28.143Z,37.50
2023-08-16T11:41:59.500Z,37.56
2023-08-16T11:44:42.494Z,36.99
2023-08-16T11:47:18.501Z,36.65
2023-08-16T11:49:53.500Z,36.50
2023-08-16T11:52:21.906Z,36.40
2023-08-16T11:55:08.560Z,36.20
2023-08-16T11:57:44.299Z,36.08
2023-08-16T12:00:27.504Z,36.17
2023-08-16T12:03:02.979Z,35.91
2023-08-16T12:05:35.045Z,35.95
2023-08-16T12:08:10.538Z,36.09
2023-08-16T12:10:38.572Z,36.32
2023-08-16T12:13:13.150Z,36.30
2023-08-16T12:15:41.776Z,36.50
2023-08-16T12:18:14.421Z,36.90
2023-08-16T12:20:44.882Z,36.50
2023-08-16T12:23:12.645Z,36.52
2023-08-16T12:25:40.788Z,36.74
2023-08-16T12:28:08.281Z,35.89
2023-08-16T12:30:41.220Z,35.87
2023-08-16T12:33:13.825Z,35.71
2023-08-16T12:35:42.722Z,35.99
2023-08-16T12:38:10.440Z,36.41
2023-08-16T12:40:38.356Z,37.12
2023-08-16T12:45:38.599Z,37.51
2023-08-16T12:48:15.005Z,37.68
2023-08-16T12:50:43.172Z,37.75
2023-08-16T12:55:43.011Z,38.13
2023-08-16T12:58:21.401Z,38.03
2023-08-16T13:00:49.605Z,37.73
2023-08-16T13:03:32.188Z,37.55
2023-08-16T13:08:32.229Z,36.87
2023-08-16T13:11:09.677Z,36.83
2023-08-16T13:13:43.653Z,36.21
2023-08-16T13:16:12.734Z,35.94
2023-08-16T13:18:46.368Z,36.12
2023-08-16T13:21:20.161Z,36.31
2023-08-16T13:24:05.234Z,36.42
2023-08-16T13:26:40.176Z,36.11
2023-08-16T13:29:24.561Z,35.72
2023-08-16T13:32:01.230Z,35.35
2023-08-16T13:37:04.881Z,36.38
2023-08-16T13:40:01.770Z,36.57
2023-08-16T13:47:31.651Z,36.44
2023-08-16T13:50:00.568Z,36.47
2023-08-16T13:52:33.142Z,36.59
2023-08-16T13:55:00.607Z,36.25
2023-08-16T13:57:28.529Z,36.01
2023-08-16T13:59:56.221Z,35.79
2023-08-16T14:02:30.481Z,35.68
2023-08-16T14:04:58.156Z,35.42
2023-08-16T14:07:31.263Z,35.22
2023-08-16T14:10:00.471Z,35.51
2023-08-16T14:12:28.262Z,35.62
2023-08-16T14:14:55.718Z,35.77
2023-08-16T14:17:23.553Z,36.21
2023-08-16T14:19:51.011Z,36.71
2023-08-16T14:22:18.865Z,36.40
2023-08-16T14:24:47.828Z,36.50
2023-08-16T14:27:15.748Z,36.23
2023-08-16T14:29:43.292Z,36.04
2023-08-16T14:32:11.152Z,35.73
2023-08-16T14:34:38.594Z,35.86
2023-08-16T14:37:06.564Z,36.12
2023-08-16T14:39:33.956Z,36.08
2023-08-16T14:42:03.369Z,35.81
2023-08-16T14:44:30.861Z,35.35
2023-08-16T14:46:58.908Z,35.36
2023-08-16T14:49:26.507Z,35.13
2023-08-16T14:51:54.604Z,35.29
2023-08-16T14:54:22.099Z,35.32
2023-08-16T14:56:49.955Z,35.51
2023-08-16T14:59:23.217Z,35.36
2023-08-16T15:01:51.020Z,35.40
2023-08-16T15:04:18.485Z,35.60
2023-08-16T15:06:46.397Z,35.59
2023-08-16T15:09:13.943Z,35.59
2023-08-16T15:11:41.936Z,35.65
2023-08-16T15:14:09.378Z,35.57
2023-08-16T15:16:38.600Z,35.42
2023-08-16T15:19:06.034Z,35.45
2023-08-16T15:21:33.951Z,35.31
2023-08-16T15:24:01.470Z,35.24
2023-08-16T15:26:29.334Z,35.27
2023-08-16T15:28:56.744Z,35.41
2023-08-16T15:31:24.871Z,35.46
2023-08-16T15:33:53.671Z,35.52
2023-08-16T15:36:21.480Z,35.36
2023-08-16T15:38:52.316Z,35.28
2023-08-16T15:41:20.997Z,35.29
2023-08-16T15:43:48.529Z,35.27
2023-08-16T15:46:16.537Z,35.06
2023-08-16T15:48:44.101Z,34.96
2023-08-16T15:51:13.399Z,34.97
2023-08-16T15:53:41.010Z,34.91
2023-08-16T15:56:08.862Z,34.95
2023-08-16T15:58:36.212Z,34.96
2023-08-16T16:01:05.467Z,35.03
2023-08-16T16:03:33.194Z,35.07
2023-08-16T16:06:01.132Z,34.78
2023-08-16T16:08:30.872Z,34.61
2023-08-16T16:10:58.797Z,34.67
2023-08-16T16:13:26.294Z,34.76
2023-08-16T16:15:54.337Z,34.70
2023-08-16T16:18:22.409Z,34.73
2023-08-16T16:20:50.350Z,34.68
2023-08-16T16:23:17.840Z,34.72
2023-08-16T16:25:51.070Z,34.79
2023-08-16T16:28:18.484Z,34.69
2023-08-16T16:30:46.409Z,34.43
2023-08-16T16:33:13.767Z,34.21
2023-08-16T16:35:41.679Z,33.99
2023-08-16T16:38:09.143Z,33.99
2023-08-16T16:40:36.941Z,33.85
2023-08-16T16:43:10.208Z,33.94
2023-08-16T16:45:38.002Z,33.83
2023-08-16T16:48:06.153Z,33.84
2023-08-16T16:50:34.081Z,33.86
2023-08-16T16:53:01.481Z,33.72
2023-08-16T16:55:29.263Z,33.51
2023-08-16T16:57:56.764Z,33.35
2023-08-16T17:00:30.131Z,33.31
2023-08-16T17:02:57.510Z,33.38
2023-08-16T17:05:25.318Z,33.27
2023-08-16T17:07:52.841Z,33.15
2023-08-16T17:10:20.630Z,32.83
2023-08-16T17:12:48.145Z,32.84
2023-08-16T17:15:16.062Z,32.78
2023-08-16T17:17:47.451Z,32.61
2023-08-16T17:20:15.612Z,32.42
2023-08-16T17:22:43.016Z,32.15
2023-08-16T17:25:11.671Z,32.01
2023-08-16T17:27:39.175Z,32.05
2023-08-16T17:30:08.753Z,32.01
2023-08-16T17:32:36.268Z,32.03
2023-08-16T17:35:05.634Z,32.07
2023-08-16T17:37:33.599Z,31.94
2023-08-16T17:40:01.012Z,31.94
2023-08-16T17:42:28.849Z,31.80
2023-08-16T17:44:56.270Z,31.58
2023-08-16T17:47:24.362Z,31.47
2023-08-16T17:49:52.113Z,31.41
2023-08-16T17:52:21.388Z,31.28
2023-08-16T17:54:48.852Z,30.91
2023-08-16T17:57:21.043Z,30.81
2023-08-16T17:59:48.560Z,30.91
2023-08-16T18:02:16.573Z,30.97
2023-08-16T18:04:44.107Z,31.04
2023-08-16T18:07:25.501Z,31.06
2023-08-16T18:09:53.240Z,31.04
2023-08-16T18:12:23.507Z,31.10
2023-08-16T18:14:54.006Z,31.10
2023-08-16T18:17:22.436Z,30.98
2023-08-16T18:19:49.961Z,31.02
2023-08-16T18:22:18.171Z,31.07
2023-08-16T18:24:47.111Z,31.06
2023-08-16T18:27:19.098Z,31.00
2023-08-16T18:29:46.633Z,30.87
2023-08-16T18:32:14.592Z,30.87
2023-08-16T18:34:42.036Z,30.73
2023-08-16T18:37:14.208Z,30.62
2023-08-16T18:39:41.930Z,30.45
2023-08-16T18:42:11.103Z,30.38
2023-08-16T18:44:38.702Z,30.18
2023-08-16T18:47:06.906Z,30.13
2023-08-16T18:49:34.334Z,30.11
2023-08-16T18:52:05.517Z,30.11
2023-08-16T18:54:33.115Z,30.01
2023-08-16T18:57:00.996Z,30.02
2023-08-16T18:59:41.524Z,29.88
2023-08-16T19:02:09.513Z,29.72
2023-08-16T19:04:37.079Z,29.54
2023-08-16T19:07:05.581Z,29.32
2023-08-16T19:09:33.174Z,29.30
2023-08-16T19:12:01.092Z,29.20
2023-08-16T19:14:35.138Z,29.23
2023-08-16T19:17:04.834Z,29.23
2023-08-16T19:19:32.326Z,29.16
2023-08-16T19:22:05.673Z,29.16
2023-08-16T19:24:33.319Z,29.09
2023-08-16T19:27:01.269Z,29.07
2023-08-16T19:29:34.250Z,28.94
2023-08-16T19:32:02.124Z,28.93
2023-08-16T19:34:33.502Z,28.90
2023-08-16T19:37:06.234Z,28.86
2023-08-16T19:39:33.823Z,28.76
2023-08-16T19:42:01.846Z,28.66
2023-08-16T19:44:30.759Z,28.57
2023-08-16T19:47:03.516Z,28.31
2023-08-16T19:49:30.956Z,28.38
2023-08-16T19:51:59.136Z,28.40
2023-08-16T19:54:26.996Z,28.34
2023-08-16T19:56:55.045Z,28.21
2023-08-16T19:59:22.624Z,28.12
2023-08-16T20:01:56.142Z,28.02
2023-08-16T20:04:23.699Z,27.85
2023-08-16T20:06:57.301Z,27.78
2023-08-16T20:09:24.834Z,27.72
2023-08-16T20:11:52.509Z,27.70
2023-08-16T20:14:20.056Z,27.59
2023-08-16T20:16:53.561Z,27.53
2023-08-16T20:19:21.093Z,27.41
2023-08-16T20:21:48.992Z,27.41
2023-08-16T20:24:16.775Z,27.28
2023-08-16T20:26:44.733Z,27.07
2023-08-16T20:29:12.092Z,27.08
2023-08-16T20:31:40.133Z,27.15
2023-08-16T20:34:17.527Z,27.17
2023-08-16T20:36:45.566Z,27.15
2023-08-16T20:39:13.130Z,26.95
2023-08-16T20:41:45.872Z,26.76
2023-08-16T20:44:13.554Z,26.78
2023-08-16T20:46:45.179Z,26.65
2023-08-16T20:49:18.287Z,26.62
2023-08-16T20:51:50.512Z,26.66
2023-08-16T20:54:18.342Z,26.55
2023-08-16T20:56:46.165Z,26.40
2023-08-16T20:59:13.652Z,26.20
2023-08-16T21:01:43.919Z,25.84
2023-08-16T21:04:18.108Z,25.53
2023-08-16T21:06:45.915Z,25.38
2023-08-16T21:09:13.450Z,24.96
2023-08-16T21:11:41.399Z,24.54
2023-08-16T21:14:08.761Z,24.38
2023-08-16T21:16:36.645Z,24.11
2023-08-16T21:19:04.386Z,24.03
2023-08-16T21:21:33.847Z,23.98
2023-08-16T21:24:01.360Z,24.03
2023-08-16T21:26:29.298Z,24.09
2023-08-16T21:28:57.173Z,24.00
2023-08-16T21:31:25.801Z,23.90
2023-08-16T21:33:53.565Z,23.46
2023-08-16T21:36:24.162Z,23.16
2023-08-16T21:38:54.161Z,23.03
2023-08-16T21:41:21.999Z,23.03
2023-08-16T21:43:49.469Z,23.01
2023-08-16T21:46:18.497Z,23.23
2023-08-16T21:48:46.047Z,23.41
2023-08-16T21:51:14.048Z,23.52
2023-08-16T21:53:41.384Z,23.47
2023-08-16T21:56:14.442Z,23.38
2023-08-16T21:58:42.117Z,23.22
2023-08-16T22:01:10.085Z,23.06
2023-08-16T22:03:37.790Z,22.89
2023-08-16T22:06:05.731Z,22.90
2023-08-16T22:08:33.186Z,22.59
2023-08-16T22:11:01.575Z,22.47
2023-08-16T22:13:34.167Z,22.46
2023-08-16T22:16:02.097Z,22.37
2023-08-16T22:18:29.631Z,22.33
2023-08-16T22:21:03.037Z,22.33
2023-08-16T22:23:32.128Z,22.32
2023-08-16T22:26:00.084Z,22.47
2023-08-16T22:28:27.665Z,22.34
2023-08-16T22:30:56.794Z,22.43
2023-08-16T22:33:24.227Z,22.40
2023-08-16T22:35:52.743Z,22.52
2023-08-16T22:38:20.209Z,22.58
2023-08-16T22:40:48.039Z,22.66
2023-08-16T22:43:15.568Z,22.55
2023-08-16T22:45:43.434Z,22.58
2023-08-16T22:48:12.371Z,22.90
2023-08-16T22:50:40.239Z,22.93
2023-08-16T22:53:07.752Z,23.19
2023-08-16T22:55:35.512Z,23.20
2023-08-16T22:58:02.977Z,23.19
2023-08-16T23:00:30.854Z,23.06
2023-08-16T23:02:58.432Z,23.03
2023-08-16T23:05:27.631Z,23.05
2023-08-16T23:07:55.011Z,22.85
2023-08-16T23:10:22.912Z,22.92
2023-08-16T23:12:50.270Z,22.86
2023-08-16T23:15:18.359Z,22.81
2023-08-16T23:17:45.834Z,22.82
2023-08-16T23:20:13.714Z,22.63
2023-08-16T23:22:42.565Z,22.48
2023-08-16T23:25:11.092Z,22.57
2023-08-16T23:27:38.803Z,22.62
2023-08-16T23:30:07.720Z,22.76
2023-08-16T23:32:35.641Z,22.80
2023-08-16T23:35:03.504Z,22.92
2023-08-16T23:37:32.193Z,22.89
2023-08-16T23:40:01.055Z,23.14
2023-08-16T23:42:28.870Z,23.18
2023-08-16T23:44:56.365Z,23.19
2023-08-16T23:47:24.640Z,23.37
2023-08-16T23:49:52.426Z,23.47
2023-08-16T23:52:20.223Z,23.48
2023-08-16T23:54:47.608Z,23.36
2023-08-16T23:57:21.051Z,23.49
2023-08-16T23:59:48.362Z,23.26
